Time;durP1;ratioP1;P1;durP2;ratioP2;P2;SDS_P1;SDS_P2;PMS_P1;PMS_P2;Temp;Humidity;BMP_temperature;BMP_pressure;BME280_temperature;BME280_humidity;BME280_pressure;Samples;Min_cycle;Max_cycle;Signal;HPM_P1;HPM_P2
2022/12/07 00:01:13;;;;;;;1.42;1.33;;;;;;;4.04;100.00;101530.03;5059395;28;20198;-80
2022/12/07 00:03:40;;;;;;;0.57;0.47;;;;;;;4.02;100.00;101524.03;5065135;28;20115;-82
2022/12/07 00:06:08;;;;;;;0.50;0.45;;;;;;;3.87;100.00;101493.63;5062136;28;20028;-80
2022/12/07 00:08:35;;;;;;;0.50;0.43;;;;;;;3.91;100.00;101513.41;5059087;28;20491;-81
2022/12/07 00:11:09;;;;;;;4.00;1.13;;;;;;;3.84;100.00;101493.81;5058911;28;20028;-80
2022/12/07 00:13:35;;;;;;;0.40;0.40;;;;;;;3.98;100.00;101516.50;5058727;28;20033;-80
2022/12/07 00:16:05;;;;;;;4.20;0.82;;;;;;;3.90;100.00;101503.91;5073979;28;20035;-80
2022/12/07 00:18:31;;;;;;;0.60;0.60;;;;;;;3.93;100.00;101508.94;5059263;28;20088;-80
2022/12/07 00:21:02;;;;;;;2.65;1.05;;;;;;;3.87;100.00;101502.28;5059390;28;20656;-80
2022/12/07 00:23:29;;;;;;;4.10;0.60;;;;;;;3.88;100.00;101505.75;5042092;28;20125;-80
2022/12/07 00:25:54;;;;;;;0.50;0.40;;;;;;;3.95;100.00;101527.97;5058225;28;20029;-82
2022/12/07 00:28:20;;;;;;;0.75;0.50;;;;;;;3.95;100.00;101522.72;5041115;28;20043;-81
2022/12/07 00:30:45;;;;;;;0.50;0.50;;;;;;;4.14;100.00;101556.47;5058311;28;20047;-79
2022/12/07 00:33:10;;;;;;;0.60;0.50;;;;;;;4.17;100.00;101539.75;5057717;28;20049;-80
2022/12/07 00:35:36;;;;;;;7.57;0.93;;;;;;;4.27;100.00;101533.88;5043593;28;20086;-80
2022/12/07 00:38:04;;;;;;;1.67;0.90;;;;;;;4.28;100.00;101513.81;5056574;28;20044;-80
2022/12/07 00:40:29;;;;;;;0.90;0.70;;;;;;;4.37;100.00;101523.69;5041105;28;20063;-80
2022/12/07 00:42:54;;;;;;;0.60;0.50;;;;;;;4.26;100.00;101500.84;5058538;28;20119;-80
2022/12/07 00:45:20;;;;;;;0.60;0.55;;;;;;;4.38;100.00;101517.56;5040537;28;20108;-80
2022/12/07 00:47:45;;;;;;;0.90;0.73;;;;;;;4.41;100.00;101529.59;5057834;28;20115;-80
2022/12/07 00:50:10;;;;;;;0.60;0.50;;;;;;;4.38;100.00;101546.31;5024849;28;20036;-80
2022/12/07 00:52:36;;;;;;;1.98;1.15;;;;;;;4.28;100.00;101537.34;5056674;28;20450;-80
2022/12/07 00:55:01;;;;;;;0.95;0.70;;;;;;;4.33;100.00;101549.19;5041340;28;20037;-80
2022/12/07 00:57:27;;;;;;;0.52;0.52;;;;;;;4.17;100.00;101506.63;5056431;28;20040;-79
2022/12/07 00:59:55;;;;;;;2.08;1.25;;;;;;;4.40;100.00;101527.91;5058939;28;20032;-80
2022/12/07 01:02:21;;;;;;;1.38;0.73;;;;;;;4.51;100.00;101535.94;5027127;28;20036;-79
2022/12/07 01:04:46;;;;;;;1.63;0.80;;;;;;;4.52;100.00;101535.84;5038619;28;20067;-80
2022/12/07 01:07:11;;;;;;;0.70;0.70;;;;;;;4.53;100.00;101532.31;5058888;28;20148;-80
2022/12/07 01:09:37;;;;;;;0.60;0.57;;;;;;;4.59;100.00;101525.84;5059281;28;20324;-81
2022/12/07 01:12:02;;;;;;;1.00;0.90;;;;;;;4.60;100.00;101521.47;5057101;28;20039;-79
2022/12/07 01:14:28;;;;;;;0.77;0.77;;;;;;;4.65;100.00;101516.78;5057728;28;20033;-80
2022/12/07 01:16:53;;;;;;;7.95;0.70;;;;;;;4.67;100.00;101515.75;5059025;28;20104;-81
2022/12/07 01:19:18;;;;;;;0.93;0.52;;;;;;;4.64;100.00;101510.72;5059140;28;20060;-79
2022/12/07 01:21:44;;;;;;;1.65;0.90;;;;;;;4.45;100.00;101484.03;5056004;28;20028;-81
2022/12/07 01:24:10;;;;;;;0.70;0.60;;;;;;;4.55;100.00;101508.66;5056507;28;20037;-80
2022/12/07 01:26:36;;;;;;;0.45;0.40;;;;;;;4.44;100.00;101487.56;5057162;28;20116;-80
2022/12/07 01:29:02;;;;;;;0.40;0.40;;;;;;;4.29;100.00;101478.91;5040848;28;20053;-81
2022/12/07 01:31:28;;;;;;;1.02;0.70;;;;;;;4.38;100.00;101483.59;5056545;28;20507;-80
2022/12/07 01:33:56;;;;;;;3.10;0.70;;;;;;;4.50;100.00;101501.09;5057293;28;20079;-80
2022/12/07 01:36:25;;;;;;;0.40;0.35;;;;;;;4.51;100.00;101508.03;5058562;28;20499;-80
2022/12/07 01:38:56;;;;;;;0.73;0.70;;;;;;;4.35;100.00;101488.97;5059366;28;20024;-79
2022/12/07 01:41:22;;;;;;;1.20;0.53;;;;;;;4.48;100.00;101525.66;5058171;28;20150;-80
2022/12/07 01:44:18;;;;;;;0.77;0.50;;;;;;;4.52;100.00;101533.22;5058899;28;20405;-80
2022/12/07 01:46:46;;;;;;;0.35;0.35;;;;;;;4.30;100.00;101496.28;5059169;28;20036;-80
2022/12/07 01:49:17;;;;;;;5.85;0.60;;;;;;;4.47;100.00;101531.84;5056945;28;20025;-79
2022/12/07 01:51:44;;;;;;;0.50;0.47;;;;;;;4.49;100.00;101522.13;5057521;28;20392;-79
2022/12/07 01:54:12;;;;;;;1.08;1.08;;;;;;;4.41;100.00;101509.50;5057780;28;20680;-79
2022/12/07 01:56:42;;;;;;;0.70;0.70;;;;;;;4.41;100.00;101506.06;5056264;28;20503;-79
2022/12/07 01:59:08;;;;;;;0.50;0.50;;;;;;;4.43;100.00;101510.25;5057474;28;20020;-80
2022/12/07 02:01:33;;;;;;;0.60;0.57;;;;;;;4.48;100.00;101531.72;5038217;28;20148;-79
2022/12/07 02:03:59;;;;;;;0.60;0.60;;;;;;;4.41;100.00;101509.50;5055168;28;20025;-79
2022/12/07 02:06:25;;;;;;;0.70;0.50;;;;;;;4.50;100.00;101523.78;5041069;28;20045;-80
2022/12/07 02:08:52;;;;;;;0.50;0.40;;;;;;;4.46;100.00;101515.28;5062687;28;20090;-80
2022/12/07 02:11:18;;;;;;;0.50;0.50;;;;;;;4.26;100.00;101484.31;5024303;28;20020;-80
2022/12/07 02:13:45;;;;;;;0.50;0.40;;;;;;;4.24;100.00;101483.56;5055408;28;20059;-80
2022/12/07 02:16:34;;;;;;;2.25;0.60;;;;;;;4.36;100.00;101511.59;5062898;28;20115;-79
2022/12/07 02:19:06;;;;;;;0.38;0.38;;;;;;;4.32;100.00;101516.16;5064434;28;20085;-80
2022/12/07 02:21:42;;;;;;;8.18;0.52;;;;;;;4.14;100.00;101498.97;5057094;28;20053;-80
2022/12/07 02:24:52;;;;;;;0.70;0.57;;;;;;;4.14;100.00;101512.03;5057634;28;20949;-80
2022/12/07 02:27:46;;;;;;;1.95;1.23;;;;;;;4.15;100.00;101507.66;5040065;28;20117;-79
2022/12/07 02:30:18;;;;;;;5.13;1.48;;;;;;;4.00;100.00;101494.56;5055942;28;20472;-81
2022/12/07 02:32:53;;;;;;;0.45;0.40;;;;;;;4.13;100.00;101511.19;5065134;28;20033;-79
2022/12/07 02:35:32;;;;;;;1.67;0.70;;;;;;;4.12;100.00;101514.75;5056812;28;20049;-79
2022/12/07 02:38:18;;;;;;;2.85;1.13;;;;;;;4.15;100.00;101523.31;5057465;28;20063;-79
2022/12/07 02:40:53;;;;;;;0.65;0.50;;;;;;;4.13;100.00;101526.84;5058290;28;20033;-80
2022/12/07 02:43:33;;;;;;;1.45;0.60;;;;;;;3.95;100.00;101509.69;5060931;28;20117;-80
2022/12/07 02:46:08;;;;;;;0.57;0.50;;;;;;;3.94;100.00;101494.09;5060443;28;20025;-79
2022/12/07 02:48:34;;;;;;;4.10;0.90;;;;;;;4.08;100.00;101508.00;5061171;28;20033;-80
2022/12/07 02:50:59;;;;;;;1.80;0.68;;;;;;;4.05;100.00;101502.13;5061703;28;20583;-79
2022/12/07 02:53:44;;;;;;;0.95;0.73;;;;;;;4.09;100.00;101504.47;5060546;28;20032;-79
2022/12/07 02:56:27;;;;;;;0.88;0.88;;;;;;;3.91;100.00;101471.63;5061456;28;20094;-80
2022/12/07 02:59:08;;;;;;;0.50;0.45;;;;;;;4.04;100.00;101472.56;5067143;28;20036;-80
2022/12/07 03:02:10;;;;;;;0.55;0.52;;;;;;;4.28;100.00;101492.91;5059770;28;20103;-80
2022/12/07 03:04:45;;;;;;;0.55;0.52;;;;;;;4.38;100.00;101491.41;5061481;28;20036;-79
2022/12/07 03:07:22;;;;;;;1.02;0.90;;;;;;;4.40;100.00;101491.31;5061568;28;20029;-80
2022/12/07 03:10:14;;;;;;;0.60;0.52;;;;;;;4.30;100.00;101470.97;5060200;28;20039;-80
2022/12/07 03:13:04;;;;;;;0.50;0.43;;;;;;;4.44;100.00;101491.06;5059891;28;20103;-80
2022/12/07 03:15:42;;;;;;;0.52;0.43;;;;;;;4.32;100.00;101494.41;5061269;28;20027;-80
2022/12/07 03:18:11;;;;;;;0.60;0.50;;;;;;;4.26;100.00;101494.78;5060804;28;20063;-80
2022/12/07 03:20:39;;;;;;;0.52;0.52;;;;;;;4.17;100.00;101475.28;5057398;28;20035;-80
2022/12/07 03:23:09;;;;;;;0.70;0.50;;;;;;;4.29;100.00;101491.97;5043643;28;20566;-80
2022/12/07 03:25:39;;;;;;;0.53;0.50;;;;;;;4.23;100.00;101484.53;5068149;28;20028;-81
2022/12/07 03:28:06;;;;;;;2.53;0.70;;;;;;;4.21;100.00;101491.63;5060229;28;20303;-79
2022/12/07 03:30:51;;;;;;;2.58;0.68;;;;;;;4.19;100.00;101488.25;5067282;28;20116;-79
2022/12/07 03:33:27;;;;;;;9.55;1.10;;;;;;;4.14;100.00;101483.31;5060841;28;20507;-79
2022/12/07 03:36:11;;;;;;;0.55;0.50;;;;;;;4.19;100.00;101503.94;5059922;28;20024;-79
2022/12/07 03:38:47;;;;;;;0.60;0.60;;;;;;;4.24;100.00;101496.63;5058664;28;20039;-80
2022/12/07 03:41:24;;;;;;;0.55;0.50;;;;;;;4.21;100.00;101458.47;5061172;28;20037;-79
2022/12/07 03:43:50;;;;;;;1.25;0.70;;;;;;;4.17;100.00;101451.75;5059881;28;20041;-79
2022/12/07 03:46:24;;;;;;;1.38;0.95;;;;;;;4.31;100.00;101472.66;5058241;28;20507;-80
2022/12/07 03:48:59;;;;;;;4.80;1.48;;;;;;;4.29;100.00;101463.22;5059076;28;20020;-79
2022/12/07 03:51:36;;;;;;;1.60;0.50;;;;;;;4.16;100.00;101457.06;5058842;28;20047;-80
2022/12/07 03:54:29;;;;;;;0.57;0.40;;;;;;;4.16;100.00;101470.13;5058410;28;20036;-79
2022/12/07 03:56:57;;;;;;;0.40;0.35;;;;;;;4.14;100.00;101465.03;5053619;28;20053;-79
2022/12/07 03:59:23;;;;;;;0.40;0.38;;;;;;;3.95;100.00;101438.34;5060787;28;20384;-80
2022/12/07 04:01:55;;;;;;;0.60;0.40;;;;;;;4.02;100.00;101455.31;5058329;28;20029;-80
2022/12/07 04:04:22;;;;;;;0.43;0.30;;;;;;;3.99;100.00;101461.56;5059831;28;20460;-79
2022/12/07 04:06:48;;;;;;;0.70;0.50;;;;;;;3.78;100.00;101444.56;5060220;28;20099;-80
2022/12/07 04:09:14;;;;;;;0.43;0.38;;;;;;;3.82;100.00;101459.94;5043919;28;20147;-80
2022/12/07 04:11:40;;;;;;;1.10;0.95;;;;;;;3.79;100.00;101464.50;5060233;28;20028;-79
2022/12/07 04:14:20;;;;;;;0.45;0.40;;;;;;;3.70;100.00;101458.06;5042535;28;20143;-80
2022/12/07 04:16:49;;;;;;;0.50;0.40;;;;;;;3.51;100.00;101442.66;5047084;28;20037;-80
2022/12/07 04:19:15;;;;;;;0.65;0.65;;;;;;;3.55;100.00;101449.38;5059132;28;20606;-80
2022/12/07 04:21:41;;;;;;;1.88;0.93;;;;;;;3.61;100.00;101469.88;5060691;28;20400;-80
2022/12/07 04:24:06;;;;;;;3.10;0.90;;;;;;;3.46;100.00;101452.50;5048493;28;20047;-80
2022/12/07 04:26:32;;;;;;;0.38;0.30;;;;;;;3.58;100.00;101472.69;5042697;28;20024;-80
2022/12/07 04:28:57;;;;;;;1.38;1.02;;;;;;;3.52;100.00;101467.81;5057278;28;20035;-80
2022/12/07 04:31:22;;;;;;;0.80;0.40;;;;;;;3.54;100.00;101475.56;5058352;28;20032;-80
2022/12/07 04:33:48;;;;;;;2.67;0.80;;;;;;;3.57;100.00;101484.06;5057390;28;20060;-80
2022/12/07 04:36:14;;;;;;;3.08;0.80;;;;;;;3.62;100.00;101475.97;5058174;28;20045;-80
2022/12/07 04:38:40;;;;;;;2.75;0.60;;;;;;;3.41;100.00;101444.09;5058799;28;20522;-80
2022/12/07 04:41:09;;;;;;;11.43;0.93;;;;;;;3.47;100.00;101464.63;5056373;28;20025;-80
2022/12/07 04:43:35;;;;;;;1.33;0.82;;;;;;;3.76;100.00;101477.75;5057156;28;20067;-80
2022/12/07 04:46:01;;;;;;;0.95;0.70;;;;;;;3.70;100.00;101461.53;5058138;28;20043;-80
2022/12/07 04:48:27;;;;;;;1.20;1.10;;;;;;;3.94;100.00;101483.66;5042831;28;20032;-80
2022/12/07 04:50:53;;;;;;;2.80;0.93;;;;;;;3.97;100.00;101478.25;5059715;28;20067;-80
2022/12/07 04:53:19;;;;;;;0.70;0.63;;;;;;;3.98;100.00;101470.31;5057701;28;20052;-80
2022/12/07 04:55:45;;;;;;;0.60;0.57;;;;;;;4.01;100.00;101459.69;5056235;28;20024;-80
2022/12/07 04:58:11;;;;;;;0.63;0.60;;;;;;;3.85;100.00;101440.63;5057191;28;20504;-80
2022/12/07 05:00:37;;;;;;;0.60;0.57;;;;;;;3.92;100.00;101450.63;5057162;28;20037;-81
2022/12/07 05:03:02;;;;;;;0.70;0.63;;;;;;;3.82;100.00;101430.38;5057087;28;20450;-81
2022/12/07 05:05:28;;;;;;;0.43;0.40;;;;;;;3.87;100.00;101451.84;5041945;28;20025;-80
2022/12/07 05:07:53;;;;;;;0.47;0.40;;;;;;;3.64;100.00;101425.34;5057114;28;20036;-80
2022/12/07 05:10:19;;;;;;;0.90;0.45;;;;;;;3.70;100.00;101434.56;5057005;28;20056;-81
2022/12/07 05:12:45;;;;;;;1.42;0.60;;;;;;;3.82;100.00;101449.50;5059099;28;20036;-81
2022/12/07 05:15:11;;;;;;;1.00;0.80;;;;;;;3.73;100.00;101426.56;5057432;28;20066;-80
2022/12/07 05:17:36;;;;;;;0.70;0.40;;;;;;;3.70;100.00;101421.50;5057596;28;20479;-80
2022/12/07 05:20:01;;;;;;;6.97;0.77;;;;;;;3.79;100.00;101433.16;5057976;28;20025;-80
2022/12/07 05:22:28;;;;;;;0.70;0.50;;;;;;;3.75;100.00;101429.09;5057973;28;20124;-80
2022/12/07 05:24:54;;;;;;;0.40;0.30;;;;;;;3.53;100.00;101400.78;5041262;28;20039;-80
2022/12/07 05:27:20;;;;;;;0.45;0.38;;;;;;;3.59;100.00;101423.91;5041870;28;20388;-80
2022/12/07 05:29:45;;;;;;;0.40;0.30;;;;;;;3.57;100.00;101434.47;5056027;28;20032;-80
2022/12/07 05:32:11;;;;;;;0.85;0.80;;;;;;;3.52;100.00;101436.50;5057887;28;20047;-81
2022/12/07 05:34:36;;;;;;;0.50;0.40;;;;;;;3.30;100.00;101410.81;5056236;28;20052;-81
2022/12/07 05:37:02;;;;;;;0.55;0.50;;;;;;;3.37;100.00;101433.00;5043356;28;20040;-81
2022/12/07 05:39:27;;;;;;;1.15;0.60;;;;;;;3.23;100.00;101410.31;5056487;28;20032;-81
2022/12/07 05:44:36;;;;;;;2.08;0.50;;;;;;;3.32;100.00;101434.22;5056301;28;20052;-80
2022/12/07 05:47:02;;;;;;;0.70;0.47;;;;;;;3.12;100.00;101412.72;5056908;28;20404;-80
2022/12/07 05:49:27;;;;;;;6.72;0.95;;;;;;;3.16;100.00;101435.09;5057509;28;20033;-80
2022/12/07 05:51:52;;;;;;;2.45;0.50;;;;;;;2.88;100.00;101407.97;5040169;28;20720;-80
2022/12/07 05:54:18;;;;;;;0.50;0.50;;;;;;;2.93;100.00;101406.88;5024045;28;20034;-80
2022/12/07 05:56:43;;;;;;;1.05;0.50;;;;;;;3.00;100.00;101419.47;5058511;28;20032;-80
2022/12/07 05:59:24;;;;;;;0.50;0.50;;;;;;;3.06;100.00;101439.97;5041871;28;20395;-79
2022/12/07 06:01:51;;;;;;;5.25;0.60;;;;;;;3.08;100.00;101439.91;5048685;28;20036;-80
2022/12/07 06:04:17;;;;;;;0.75;0.43;;;;;;;2.98;100.00;101441.34;5057178;28;20435;-81
2022/12/07 06:06:42;;;;;;;1.88;0.60;;;;;;;3.06;100.00;101455.63;5056143;28;20036;-80
2022/12/07 06:09:08;;;;;;;3.50;1.58;;;;;;;3.12;100.00;101453.63;5055030;28;20044;-81
2022/12/07 06:14:17;;;;;;;0.90;0.68;;;;;;;3.37;100.00;101447.81;5057773;28;20047;-80
2022/12/07 06:16:43;;;;;;;0.80;0.73;;;;;;;3.53;100.00;101447.75;5046107;28;20041;-81
2022/12/07 06:19:08;;;;;;;1.65;1.30;;;;;;;3.59;100.00;101437.81;5060054;28;20040;-81
2022/12/07 06:21:33;;;;;;;1.33;0.75;;;;;;;3.65;100.00;101442.66;5059234;28;20028;-81
2022/12/07 06:23:59;;;;;;;5.13;1.15;;;;;;;3.65;100.00;101444.44;5060546;28;20479;-83
2022/12/07 06:26:24;;;;;;;0.60;0.60;;;;;;;3.63;100.00;101444.53;5043109;28;20040;-82
2022/12/07 06:28:50;;;;;;;2.17;1.52;;;;;;;3.65;100.00;101441.84;5061585;28;20060;-81
2022/12/07 06:31:15;;;;;;;0.73;0.73;;;;;;;3.64;100.00;101441.00;5059042;28;20103;-83
2022/12/07 06:33:41;;;;;;;3.50;1.90;;;;;;;3.54;100.00;101423.34;5056651;28;20056;-83
2022/12/07 06:36:07;;;;;;;1.13;0.88;;;;;;;3.47;100.00;101417.66;5041435;28;20068;-83
2022/12/07 06:38:33;;;;;;;1.48;0.73;;;;;;;3.65;100.00;101447.88;5059974;28;20923;-81
2022/12/07 06:40:58;;;;;;;3.47;1.17;;;;;;;3.60;100.00;101443.88;5043465;28;20078;-82
2022/12/07 06:43:24;;;;;;;0.60;0.47;;;;;;;3.41;100.00;101420.63;5060827;28;20090;-82
2022/12/07 06:45:49;;;;;;;1.95;1.35;;;;;;;3.37;100.00;101422.56;5040929;28;20032;-82
2022/12/07 06:48:14;;;;;;;3.60;0.50;;;;;;;3.40;100.00;101426.78;5047827;28;20043;-81
2022/12/07 06:50:40;;;;;;;1.45;0.93;;;;;;;3.39;100.00;101432.91;5059959;28;20025;-83
2022/12/07 06:53:05;;;;;;;0.50;0.50;;;;;;;3.21;100.00;101403.53;5059153;28;20037;-84
2022/12/07 06:55:30;;;;;;;0.70;0.50;;;;;;;3.35;100.00;101434.03;5024518;28;20487;-81
2022/12/07 06:57:56;;;;;;;3.95;0.50;;;;;;;3.17;100.00;101405.47;5058768;28;20399;-85
2022/12/07 07:00:22;;;;;;;0.50;0.50;;;;;;;3.21;100.00;101427.84;5039788;28;20111;-83
2022/12/07 07:02:47;;;;;;;0.90;0.75;;;;;;;3.10;100.00;101404.13;5040148;28;20059;-83
2022/12/07 07:05:12;;;;;;;2.58;0.52;;;;;;;3.26;100.00;101441.44;5039595;28;20029;-81
2022/12/07 07:07:38;;;;;;;0.75;0.57;;;;;;;3.09;100.00;101418.09;5058285;28;20455;-85
2022/12/07 07:10:04;;;;;;;14.10;1.05;;;;;;;3.12;100.00;101430.97;5042689;28;20120;-84
2022/12/07 07:12:29;;;;;;;6.07;0.60;;;;;;;3.16;100.00;101437.69;5041682;28;20091;-84
2022/12/07 07:14:54;;;;;;;0.55;0.40;;;;;;;3.10;100.00;101422.41;5058689;28;20150;-84
2022/12/07 07:17:20;;;;;;;3.10;0.82;;;;;;;3.02;100.00;101411.56;5058829;28;20032;-83
2022/12/07 07:19:46;;;;;;;5.50;0.80;;;;;;;3.24;100.00;101452.91;5040699;28;20036;-84
2022/12/07 07:22:11;;;;;;;0.63;0.63;;;;;;;3.13;100.00;101430.03;5043392;28;20119;-83
2022/12/07 07:24:37;;;;;;;5.18;2.13;;;;;;;3.17;100.00;101426.31;5043242;28;20032;-84
2022/12/07 07:27:02;;;;;;;1.63;0.88;;;;;;;3.23;100.00;101436.41;5043234;28;20027;-84
2022/12/07 07:29:27;;;;;;;2.80;1.42;;;;;;;3.44;100.00;101444.78;5041406;28;20503;-83
2022/12/07 07:31:53;;;;;;;0.95;0.90;;;;;;;3.45;100.00;101436.00;5042831;28;20053;-83
2022/12/07 07:34:18;;;;;;;0.55;0.55;;;;;;;3.50;100.00;101446.16;5042248;28;20048;-83
2022/12/07 07:36:44;;;;;;;3.72;0.98;;;;;;;3.45;100.00;101432.56;5059190;28;20040;-83
2022/12/07 07:39:12;;;;;;;0.65;0.63;;;;;;;3.56;100.00;101445.81;5043868;28;20056;-84
2022/12/07 07:41:37;;;;;;;1.15;0.95;;;;;;;3.40;100.00;101426.78;5059951;28;20518;-84
2022/12/07 07:44:03;;;;;;;1.85;1.75;;;;;;;3.59;100.00;101453.47;5042130;28;20025;-82
2022/12/07 07:46:28;;;;;;;0.80;0.80;;;;;;;3.53;100.00;101435.56;5042994;28;20059;-83
2022/12/07 07:48:53;;;;;;;0.80;0.80;;;;;;;3.60;100.00;101451.72;5058494;28;20112;-83
2022/12/07 07:51:19;;;;;;;2.65;1.13;;;;;;;3.49;100.00;101421.03;5059716;28;20101;-84
2022/12/07 07:53:44;;;;;;;0.73;0.65;;;;;;;3.53;100.00;101435.56;5058668;28;20082;-84
2022/12/07 07:56:10;;;;;;;0.47;0.40;;;;;;;3.60;100.00;101434.28;5057798;28;20029;-83
2022/12/07 07:58:35;;;;;;;0.88;0.75;;;;;;;3.73;100.00;101437.00;5057712;28;20087;-84
2022/12/07 08:01:08;;;;;;;0.52;0.40;;;;;;;3.88;100.00;101451.75;5058288;28;20071;-83
2022/12/07 08:03:34;;;;;;;1.08;0.98;;;;;;;3.96;100.00;101447.84;5065445;28;20029;-83
2022/12/07 08:05:59;;;;;;;1.10;1.00;;;;;;;4.00;100.00;101447.56;5058543;28;20039;-83
2022/12/07 08:08:25;;;;;;;1.15;1.05;;;;;;;3.96;100.00;101435.59;5059798;28;20396;-84
2022/12/07 08:10:50;;;;;;;1.42;1.33;;;;;;;3.89;100.00;101423.84;5025928;28;20029;-84
2022/12/07 08:13:16;;;;;;;2.05;0.85;;;;;;;3.83;100.00;101419.00;5040932;28;20045;-83
2022/12/07 08:15:47;;;;;;;1.13;0.73;;;;;;;3.96;100.00;101445.22;5058020;28;20028;-84
2022/12/07 08:18:14;;;;;;;2.15;0.93;;;;;;;4.10;100.00;101453.91;5057176;28;20037;-84
2022/12/07 08:20:40;;;;;;;1.02;0.85;;;;;;;3.88;100.00;101432.63;5059742;28;20471;-83
2022/12/07 08:23:07;;;;;;;0.90;0.90;;;;;;;4.19;100.00;101459.50;5041578;28;20028;-84
2022/12/07 08:25:33;;;;;;;6.82;0.70;;;;;;;4.23;100.00;101464.44;5059029;28;20029;-84
2022/12/07 08:27:59;;;;;;;1.15;0.70;;;;;;;4.10;100.00;101448.69;5058909;28;20036;-84
2022/12/07 08:30:25;;;;;;;0.30;0.25;;;;;;;4.31;100.00;101477.91;5058918;28;20534;-85
2022/12/07 08:32:50;;;;;;;0.38;0.30;;;;;;;4.01;100.00;101444.03;5043140;28;20029;-83
2022/12/07 08:35:16;;;;;;;0.32;0.30;;;;;;;4.22;100.00;101483.66;5040648;28;20727;-85
2022/12/07 08:37:42;;;;;;;0.30;0.30;;;;;;;4.20;100.00;101463.78;5059976;28;20462;-84
2022/12/07 08:40:09;;;;;;;0.32;0.20;;;;;;;4.17;100.00;101475.28;5042888;28;20025;-84
2022/12/07 08:42:39;;;;;;;0.20;0.20;;;;;;;4.22;100.00;101467.16;5058443;28;20028;-85
2022/12/07 08:45:11;;;;;;;0.93;0.93;;;;;;;4.23;100.00;101455.78;5056598;28;20446;-85
2022/12/07 08:47:40;;;;;;;0.30;0.20;;;;;;;4.47;100.00;101461.28;5058508;28;20040;-83
2022/12/07 08:50:07;;;;;;;0.20;0.20;;;;;;;4.73;100.00;101463.06;5058276;28;20032;-84
2022/12/07 08:52:34;;;;;;;1.70;1.00;;;;;;;4.94;100.00;101439.97;5057778;28;20031;-83
2022/12/07 08:55:01;;;;;;;2.15;0.52;;;;;;;5.24;100.00;101457.19;5057242;28;20028;-84
2022/12/07 08:57:28;;;;;;;2.55;0.40;;;;;;;5.41;100.00;101429.09;5058225;28;20036;-84
2022/12/07 08:59:53;;;;;;;0.43;0.40;;;;;;;5.80;100.00;101437.81;5059063;28;20036;-84
2022/12/07 09:02:19;;;;;;;0.52;0.52;;;;;;;6.23;100.00;101456.69;5056918;28;20027;-84
2022/12/07 09:04:44;;;;;;;0.40;0.30;;;;;;;5.89;100.00;101395.28;5059584;28;20095;-84
2022/12/07 09:07:10;;;;;;;0.38;0.38;;;;;;;6.17;100.00;101400.28;5040483;28;20025;-84
2022/12/07 09:09:35;;;;;;;1.83;0.93;;;;;;;7.34;100.00;101439.09;5041561;28;20039;-84
2022/12/07 09:12:01;;;;;;;0.47;0.40;;;;;;;7.95;100.00;101436.22;5058618;28;20024;-85
2022/12/07 09:14:26;;;;;;;0.30;0.30;;;;;;;8.47;100.00;101449.75;5054854;28;20025;-83
2022/12/07 09:16:51;;;;;;;2.53;0.55;;;;;;;8.83;100.00;101414.38;5058328;28;20040;-85
2022/12/07 09:19:17;;;;;;;0.60;0.60;;;;;;;8.93;100.00;101439.94;5025498;28;20039;-84
2022/12/07 09:21:42;;;;;;;0.47;0.40;;;;;;;9.02;100.00;101428.69;5058998;28;20047;-85
2022/12/07 09:24:09;;;;;;;3.55;0.30;;;;;;;9.68;100.00;101441.63;5041130;28;20051;-84
2022/12/07 09:26:35;;;;;;;2.65;0.63;;;;;;;9.78;100.00;101453.06;5023335;28;20029;-86
2022/12/07 09:29:01;;;;;;;1.00;0.40;;;;;;;9.46;100.00;101464.50;5041568;28;20033;-86
2022/12/07 09:31:26;;;;;;;1.38;0.40;;;;;;;9.06;100.00;101457.25;5056541;28;20094;-85
2022/12/07 09:34:00;;;;;;;0.15;0.15;;;;;;;8.60;100.00;101453.06;5056056;28;20504;-85
2022/12/07 09:36:27;;;;;;;3.42;0.80;;;;;;;8.38;100.00;101450.41;5056954;28;20107;-85
2022/12/07 09:38:52;;;;;;;3.20;0.47;;;;;;;8.71;100.00;101462.75;5055974;28;20086;-84
2022/12/07 09:41:18;;;;;;;1.45;0.80;;;;;;;8.88;100.00;101450.84;5058121;28;20029;-84
2022/12/07 09:43:45;;;;;;;0.20;0.20;;;;;;;9.27;100.00;101448.53;5057528;28;20029;-85
2022/12/07 09:46:15;;;;;;;1.00;0.20;;;;;;;10.17;100.00;101458.53;5054093;28;20039;-85
2022/12/07 09:48:42;;;;;;;5.82;0.38;;;;;;;10.59;100.00;101421.47;5058434;28;20429;-84
2022/12/07 09:51:20;;;;;;;1.60;0.45;;;;;;;10.26;100.00;101449.00;5060777;28;20043;-84
2022/12/07 09:53:46;;;;;;;3.50;0.95;;;;;;;9.69;100.00;101427.50;5063525;28;20055;-84
2022/12/07 09:56:14;;;;;;;0.82;0.43;;;;;;;9.48;100.00;101419.59;5045152;28;20149;-85
2022/12/07 09:58:40;;;;;;;0.40;0.30;;;;;;;9.76;100.00;101460.28;5062264;28;20029;-85
2022/12/07 10:01:09;;;;;;;2.83;0.38;;;;;;;9.37;100.00;101470.53;5060232;28;20059;-85
2022/12/07 10:03:37;;;;;;;0.30;0.28;;;;;;;9.08;100.00;101449.25;5059692;28;20112;-86
2022/12/07 10:06:05;;;;;;;0.20;0.20;;;;;;;8.90;100.00;101435.75;5062683;28;20527;-86
2022/12/07 10:08:31;;;;;;;0.13;0.13;;;;;;;9.37;100.00;101435.47;5062602;28;20032;-87
2022/12/07 10:10:57;;;;;;;1.10;0.35;;;;;;;10.07;100.00;101471.66;5060719;28;20033;-85
2022/12/07 10:13:37;;;;;;;2.15;0.30;;;;;;;10.72;100.00;101467.91;5059935;28;20024;-86
2022/12/07 10:16:02;;;;;;;5.10;0.40;;;;;;;11.45;100.00;101466.59;5059051;28;20398;-86
2022/12/07 10:18:38;;;;;;;2.92;0.85;;;;;;;12.05;100.00;101468.16;5060821;28;20120;-87
2022/12/07 10:21:16;;;;;;;0.93;0.40;;;;;;;12.08;98.17;101462.56;5063021;28;20110;-86
2022/12/07 10:24:05;;;;;;;0.63;0.28;;;;;;;11.74;100.00;101466.53;5061091;28;20472;-86
2022/12/07 10:26:46;;;;;;;0.75;0.40;;;;;;;11.33;100.00;101460.59;5062081;28;20089;-85
2022/12/07 10:29:11;;;;;;;0.10;0.10;;;;;;;11.31;100.00;101459.91;5063369;28;20033;-86
2022/12/07 10:31:39;;;;;;;2.20;0.95;;;;;;;11.31;100.00;101464.34;5060964;28;20421;-85
2022/12/07 10:34:24;;;;;;;0.47;0.45;;;;;;;11.01;100.00;101436.25;5061092;28;20538;-86
2022/12/07 10:36:50;;;;;;;2.25;0.50;;;;;;;10.91;100.00;101442.38;5060859;28;20024;-86
2022/12/07 10:39:21;;;;;;;1.95;0.38;;;;;;;10.87;100.00;101456.81;5061300;28;20112;-86
2022/12/07 10:41:58;;;;;;;2.85;0.68;;;;;;;10.63;100.00;101443.16;5060323;28;20029;-86
2022/12/07 10:44:29;;;;;;;0.25;0.20;;;;;;;10.63;100.00;101454.56;5060038;28;20055;-86
2022/12/07 10:47:13;;;;;;;2.05;0.65;;;;;;;10.62;100.00;101452.03;5066023;28;20013;-86
2022/12/07 10:50:16;;;;;;;1.30;0.45;;;;;;;10.54;100.00;101439.53;5061594;28;20427;-86
2022/12/07 10:52:57;;;;;;;1.17;0.30;;;;;;;9.90;100.00;101435.34;5059233;28;20068;-85
2022/12/07 10:55:56;;;;;;;2.83;0.40;;;;;;;9.81;100.00;101426.44;5058190;28;20025;-85
2022/12/07 10:59:06;;;;;;;2.25;0.80;;;;;;;9.73;100.00;101436.78;5074267;28;20029;-86
2022/12/07 11:01:57;;;;;;;1.35;0.45;;;;;;;9.88;100.00;101432.84;4971641;28;20034;-85
2022/12/07 11:04:43;;;;;;;4.55;0.22;;;;;;;9.79;100.00;101417.81;4988495;28;20037;-85
2022/12/07 11:07:42;;;;;;;1.17;0.32;;;;;;;9.63;100.00;101415.66;4988319;28;20070;-86
2022/12/07 11:10:12;;;;;;;1.65;0.65;;;;;;;9.39;100.00;101405.38;4973271;28;20117;-85
2022/12/07 11:12:56;;;;;;;0.88;0.32;;;;;;;9.22;100.00;101408.59;4988352;28;20034;-85
2022/12/07 11:15:44;;;;;;;4.38;0.93;;;;;;;9.12;100.00;101411.13;4971693;28;20027;-85
2022/12/07 11:18:24;;;;;;;3.40;0.43;;;;;;;9.09;100.00;101403.50;4952282;28;20066;-85
2022/12/07 11:20:57;;;;;;;1.25;0.73;;;;;;;8.89;100.00;101404.31;4972046;28;20197;-84
2022/12/07 11:23:32;;;;;;;0.38;0.30;;;;;;;8.69;100.00;101364.66;4971784;28;20621;-88
2022/12/07 11:26:13;;;;;;;0.20;0.20;;;;;;;8.80;100.00;101392.75;4971873;28;20034;-85
2022/12/07 11:28:38;;;;;;;;;;;;;;;8.78;100.00;101392.03;4987759;28;20023;-85
2022/12/07 11:31:15;;;;;;;0.63;0.33;;;;;;;8.74;100.00;101362.47;4988051;28;19910;-86
2022/12/07 11:33:58;;;;;;;0.20;0.10;;;;;;;8.96;100.00;101377.34;5058924;28;20286;-86
2022/12/07 11:37:09;;;;;;;0.28;0.20;;;;;;;9.13;100.00;101359.34;5060259;28;20036;-86
2022/12/07 11:39:44;;;;;;;1.73;0.53;;;;;;;9.13;100.00;101330.38;5060335;28;21649;-84
2022/12/07 11:42:14;;;;;;;3.70;0.20;;;;;;;9.11;100.00;101354.19;5055327;28;20040;-84